Time;durP1;ratioP1;P1;durP2;ratioP2;P2;SDS_P1;SDS_P2;PMS_P1;PMS_P2;Temp;Humidity;BMP_temperature;BMP_pressure;BME280_temperature;BME280_humidity;BME280_pressure;Samples;Min_cycle;Max_cycle;Signal;HPM_P1;HPM_P2
2022/05/28 00:01:49;;;;;;;10.37;7.30;;;12.90;99.90;;;;;;4993918;28;20205;-77
2022/05/28 00:04:17;;;;;;;7.20;6.53;;;12.90;99.90;;;;;;4993873;28;20281;-78
2022/05/28 00:06:45;;;;;;;9.77;8.17;;;12.90;99.90;;;;;;4994958;28;20197;-79
2022/05/28 00:09:12;;;;;;;11.10;7.20;;;12.90;99.90;;;;;;4993479;28;20275;-77
2022/05/28 00:11:42;;;;;;;9.67;7.17;;;12.90;99.90;;;;;;4993425;28;20224;-78
2022/05/28 00:14:10;;;;;;;8.10;7.33;;;12.90;99.90;;;;;;5001753;28;20310;-78
2022/05/28 00:16:37;;;;;;;9.30;7.73;;;12.90;99.90;;;;;;5000266;28;20262;-78
2022/05/28 00:19:04;;;;;;;10.07;7.47;;;12.90;99.90;;;;;;4993610;28;20701;-77
2022/05/28 00:21:33;;;;;;;8.27;7.10;;;12.90;99.90;;;;;;4994728;28;20208;-78
2022/05/28 00:24:00;;;;;;;10.13;7.13;;;13.00;99.90;;;;;;4994895;28;20641;-78
2022/05/28 00:26:27;;;;;;;7.43;6.77;;;12.90;99.90;;;;;;4994616;28;20709;-78
2022/05/28 00:28:54;;;;;;;7.27;6.67;;;13.00;99.90;;;;;;4993347;28;20268;-76
2022/05/28 00:31:21;;;;;;;37.73;14.17;;;13.00;99.90;;;;;;4992908;28;20674;-78
2022/05/28 00:33:47;;;;;;;25.83;12.27;;;12.90;99.90;;;;;;4993079;28;20697;-78
2022/05/28 00:36:15;;;;;;;24.27;11.83;;;12.90;99.90;;;;;;4993465;28;20208;-77
2022/05/28 00:38:45;;;;;;;38.00;16.03;;;12.90;99.90;;;;;;4994507;28;20250;-78
2022/05/28 00:41:12;;;;;;;27.87;12.67;;;13.00;99.90;;;;;;4994207;28;20205;-77
2022/05/28 00:43:42;;;;;;;17.60;9.60;;;13.10;99.90;;;;;;4994487;28;20296;-77
2022/05/28 00:46:13;;;;;;;12.63;7.97;;;13.10;99.90;;;;;;4993762;28;20220;-77
2022/05/28 00:48:44;;;;;;;12.13;7.33;;;13.10;99.90;;;;;;5002196;28;20267;-77
2022/05/28 00:51:15;;;;;;;8.80;7.37;;;13.20;99.90;;;;;;4994269;28;20291;-77
2022/05/28 00:53:44;;;;;;;9.20;7.20;;;13.10;99.90;;;;;;5009116;28;20856;-77
2022/05/28 00:56:11;;;;;;;7.27;6.57;;;13.20;99.90;;;;;;4994403;28;20197;-77
2022/05/28 00:58:39;;;;;;;7.13;6.30;;;13.20;99.90;;;;;;4991734;28;20341;-78
2022/05/28 01:01:07;;;;;;;7.47;6.57;;;13.20;99.90;;;;;;4994107;28;20250;-77
2022/05/28 01:03:38;;;;;;;10.43;6.27;;;13.20;99.90;;;;;;4992436;28;20231;-77
2022/05/28 01:06:09;;;;;;;8.93;5.90;;;13.20;99.90;;;;;;4994138;28;20287;-77
2022/05/28 01:08:41;;;;;;;7.20;6.33;;;13.10;99.90;;;;;;4993983;28;20195;-77
2022/05/28 01:11:19;;;;;;;15.10;7.60;;;13.10;99.90;;;;;;4992573;28;20262;-77
2022/05/28 01:13:52;;;;;;;9.27;7.03;;;13.00;99.90;;;;;;4986202;28;20223;-78
2022/05/28 01:16:25;;;;;;;7.30;6.60;;;13.00;99.90;;;;;;4993857;28;20627;-77
2022/05/28 01:18:57;;;;;;;8.53;6.97;;;12.90;99.90;;;;;;4993050;28;20234;-77
2022/05/28 01:21:31;;;;;;;7.47;6.77;;;12.90;99.90;;;;;;4992497;28;20208;-78
2022/05/28 01:24:05;;;;;;;7.97;6.70;;;12.90;99.90;;;;;;4993928;28;20215;-77
2022/05/28 01:26:43;;;;;;;7.20;6.50;;;13.00;99.90;;;;;;4992657;28;20296;-78
2022/05/28 01:29:15;;;;;;;7.97;6.20;;;12.90;99.90;;;;;;4994144;28;20205;-77
2022/05/28 01:31:43;;;;;;;7.47;6.77;;;12.80;99.90;;;;;;4986605;28;20200;-77
2022/05/28 01:34:11;;;;;;;7.37;6.67;;;12.80;99.90;;;;;;5001330;28;20221;-77
2022/05/28 01:36:39;;;;;;;6.67;5.97;;;12.80;99.90;;;;;;4989381;28;20200;-77
2022/05/28 01:39:07;;;;;;;9.57;6.53;;;12.70;99.90;;;;;;4993868;28;20264;-78
2022/05/28 01:41:36;;;;;;;7.07;6.37;;;12.70;99.90;;;;;;4992146;28;20209;-78
2022/05/28 01:44:07;;;;;;;8.70;6.70;;;12.60;99.90;;;;;;4994456;28;20228;-78
2022/05/28 01:46:37;;;;;;;8.57;6.50;;;12.60;99.90;;;;;;4997939;28;20258;-79
2022/05/28 01:49:05;;;;;;;7.90;6.90;;;12.60;99.90;;;;;;4997769;28;20209;-77
2022/05/28 01:51:37;;;;;;;6.97;6.27;;;12.60;99.90;;;;;;4997648;28;20219;-78
2022/05/28 01:54:08;;;;;;;7.37;6.63;;;12.60;99.90;;;;;;4997767;28;20357;-77
2022/05/28 01:56:35;;;;;;;7.10;6.40;;;12.70;99.90;;;;;;4996239;28;20266;-78
2022/05/28 01:59:02;;;;;;;7.80;7.10;;;12.80;99.90;;;;;;4996821;28;20197;-77
2022/05/28 02:01:30;;;;;;;8.07;7.07;;;12.80;99.90;;;;;;4996259;28;20205;-77
2022/05/28 02:04:00;;;;;;;7.47;6.77;;;12.80;99.90;;;;;;4995859;28;20224;-77
2022/05/28 02:06:27;;;;;;;8.20;6.37;;;12.80;99.90;;;;;;4995816;28;20581;-76
2022/05/28 02:08:55;;;;;;;9.47;7.60;;;12.80;99.90;;;;;;4997332;28;20333;-77
2022/05/28 02:11:25;;;;;;;9.93;7.00;;;12.80;99.90;;;;;;4997361;28;20267;-78
2022/05/28 02:14:03;;;;;;;8.13;6.40;;;12.80;99.90;;;;;;5001688;28;20720;-77
2022/05/28 02:16:41;;;;;;;7.37;5.07;;;12.80;99.90;;;;;;4996416;28;20201;-77
2022/05/28 02:19:14;;;;;;;7.33;5.10;;;12.80;99.90;;;;;;4996121;28;20248;-77
2022/05/28 02:21:44;;;;;;;5.97;4.70;;;12.80;99.90;;;;;;4993963;28;20201;-78
2022/05/28 02:24:17;;;;;;;5.10;4.60;;;12.80;99.90;;;;;;4996763;28;20221;-77
2022/05/28 02:26:51;;;;;;;8.23;5.33;;;12.90;99.90;;;;;;4997512;28;20197;-77
2022/05/28 02:29:19;;;;;;;6.23;5.33;;;12.90;99.90;;;;;;4996712;28;20677;-81
2022/05/28 02:31:50;;;;;;;5.57;5.03;;;12.90;99.90;;;;;;4994081;28;20255;-79
2022/05/28 02:34:19;;;;;;;6.60;5.67;;;13.00;99.90;;;;;;4999812;28;20262;-78
2022/05/28 02:36:46;;;;;;;7.83;5.90;;;12.90;99.90;;;;;;4994239;28;20209;-78
2022/05/28 02:39:13;;;;;;;6.40;5.23;;;12.90;99.90;;;;;;4991566;28;20271;-79
2022/05/28 02:41:40;;;;;;;7.03;5.30;;;12.80;99.90;;;;;;5000158;28;20189;-79
2022/05/28 02:44:09;;;;;;;5.77;4.70;;;12.80;99.90;;;;;;4994783;28;20736;-77
2022/05/28 02:46:36;;;;;;;7.77;5.10;;;12.80;99.90;;;;;;4998398;28;20205;-78
2022/05/28 02:49:04;;;;;;;6.43;4.93;;;12.70;99.90;;;;;;5008747;28;20200;-77
2022/05/28 02:51:31;;;;;;;7.30;5.27;;;12.70;99.90;;;;;;5011163;28;20212;-78
2022/05/28 02:53:58;;;;;;;8.23;5.57;;;12.70;99.90;;;;;;5011617;28;20224;-77
2022/05/28 02:56:25;;;;;;;6.67;5.03;;;12.60;99.90;;;;;;5004028;28;20262;-78
2022/05/28 02:58:52;;;;;;;7.27;6.17;;;12.50;99.90;;;;;;4988361;28;20197;-78
2022/05/28 03:01:23;;;;;;;8.30;3.90;;;12.40;99.90;;;;;;5007918;28;20196;-78
2022/05/28 03:03:50;;;;;;;9.03;5.60;;;12.40;99.90;;;;;;5004890;28;20219;-78
2022/05/28 03:06:18;;;;;;;7.00;6.30;;;12.40;99.90;;;;;;4985642;28;20223;-78
2022/05/28 03:08:46;;;;;;;7.30;6.60;;;12.40;99.90;;;;;;4986580;28;20200;-77
2022/05/28 03:11:12;;;;;;;7.17;6.47;;;12.30;99.90;;;;;;4989910;28;20215;-78
2022/05/28 03:13:40;;;;;;;10.43;6.97;;;12.30;99.90;;;;;;4987417;28;20231;-79
2022/05/28 03:16:07;;;;;;;10.43;6.93;;;12.30;99.90;;;;;;4994263;28;20205;-78
2022/05/28 03:18:34;;;;;;;7.83;6.87;;;12.30;99.90;;;;;;4979528;28;20219;-78
2022/05/28 03:21:01;;;;;;;8.00;6.73;;;12.30;99.90;;;;;;4978512;28;20197;-78
2022/05/28 03:23:29;;;;;;;7.10;6.30;;;12.20;99.90;;;;;;5000190;28;20265;-78
2022/05/28 03:25:56;;;;;;;10.13;7.37;;;12.20;99.90;;;;;;5001652;28;20350;-78
2022/05/28 03:28:23;;;;;;;7.53;6.73;;;12.10;99.90;;;;;;5009186;28;20191;-78
2022/05/28 03:30:50;;;;;;;6.87;6.27;;;12.10;99.90;;;;;;5010502;28;20277;-78
2022/05/28 03:33:16;;;;;;;7.40;6.80;;;12.10;99.90;;;;;;5008018;28;20208;-77
2022/05/28 03:35:43;;;;;;;7.30;6.60;;;12.20;99.90;;;;;;5005991;28;20707;-78
2022/05/28 03:38:10;;;;;;;8.90;6.80;;;12.20;99.90;;;;;;5010732;28;20731;-77
2022/05/28 03:40:38;;;;;;;8.83;7.20;;;12.10;99.90;;;;;;4994902;28;20204;-77
2022/05/28 03:43:06;;;;;;;8.87;7.70;;;12.10;99.90;;;;;;5005513;28;20207;-78
2022/05/28 03:45:34;;;;;;;7.77;7.03;;;12.10;99.90;;;;;;5004684;28;20596;-78
2022/05/28 03:48:09;;;;;;;7.63;3.23;;;12.10;99.90;;;;;;5007645;28;20215;-77
2022/05/28 03:50:36;;;;;;;8.57;3.40;;;12.00;99.90;;;;;;5008029;28;20203;-78
2022/05/28 03:53:03;;;;;;;10.27;3.50;;;12.10;99.90;;;;;;5008114;28;20211;-78
2022/05/28 03:55:30;;;;;;;6.20;2.80;;;12.00;99.90;;;;;;5005919;28;20222;-78
2022/05/28 03:57:58;;;;;;;5.07;2.60;;;12.00;99.90;;;;;;5007469;28;20286;-78
2022/05/28 04:00:25;;;;;;;4.67;3.17;;;12.00;99.90;;;;;;4994299;28;20211;-84
2022/05/28 04:02:52;;;;;;;7.17;6.20;;;12.00;99.90;;;;;;4993542;28;20197;-78
2022/05/28 04:05:19;;;;;;;9.07;6.07;;;12.00;99.90;;;;;;5000642;28;20220;-78
2022/05/28 04:07:46;;;;;;;6.83;5.90;;;11.90;99.90;;;;;;4992585;28;20292;-78
2022/05/28 04:10:13;;;;;;;7.70;6.03;;;11.90;99.90;;;;;;4993161;28;20694;-78
2022/05/28 04:12:40;;;;;;;7.50;6.10;;;11.90;99.90;;;;;;4996325;28;20206;-78
2022/05/28 04:15:10;;;;;;;7.43;6.23;;;11.90;99.90;;;;;;4994656;28;20227;-78
2022/05/28 04:17:38;;;;;;;6.40;5.80;;;11.80;99.90;;;;;;4988742;28;20202;-78
2022/05/28 04:20:07;;;;;;;6.80;5.80;;;11.90;99.90;;;;;;4993874;28;20210;-78
2022/05/28 04:22:33;;;;;;;6.80;6.07;;;11.80;99.90;;;;;;4992120;28;20743;-78
2022/05/28 04:25:00;;;;;;;8.27;5.87;;;11.90;99.90;;;;;;4988535;28;20277;-77
2022/05/28 04:27:27;;;;;;;9.40;6.27;;;11.90;99.90;;;;;;4994928;28;20199;-78
2022/05/28 04:29:54;;;;;;;6.50;5.90;;;11.90;99.90;;;;;;4993682;28;20281;-78
2022/05/28 04:32:22;;;;;;;6.83;6.13;;;11.90;99.90;;;;;;4992971;28;20211;-78
2022/05/28 04:34:48;;;;;;;7.73;5.93;;;11.90;99.90;;;;;;4993579;28;20209;-78
2022/05/28 04:37:15;;;;;;;6.77;5.83;;;12.00;99.90;;;;;;4990030;28;20746;-78
2022/05/28 04:39:44;;;;;;;8.37;6.00;;;11.90;99.90;;;;;;4992262;28;21312;-78
2022/05/28 04:42:11;;;;;;;7.00;5.80;;;12.00;99.90;;;;;;4990778;28;20200;-80
2022/05/28 04:44:38;;;;;;;6.70;5.90;;;12.00;99.90;;;;;;4991185;28;20220;-80
2022/05/28 04:47:05;;;;;;;6.37;5.77;;;12.00;99.90;;;;;;4991333;28;20592;-79
2022/05/28 04:49:33;;;;;;;9.47;6.47;;;12.10;99.90;;;;;;4992473;28;20207;-80
2022/05/28 04:52:00;;;;;;;10.80;6.27;;;12.10;99.90;;;;;;4985626;28;20219;-79
2022/05/28 04:54:27;;;;;;;7.23;6.53;;;12.10;99.90;;;;;;4992822;28;20226;-80
2022/05/28 04:56:54;;;;;;;7.77;4.77;;;12.10;99.90;;;;;;4991104;28;20259;-82
2022/05/28 04:59:21;;;;;;;5.57;4.73;;;12.20;99.90;;;;;;4990612;28;20203;-78
2022/05/28 05:01:47;;;;;;;7.97;6.63;;;12.30;99.90;;;;;;4990235;28;20948;-77
2022/05/28 05:04:14;;;;;;;4.13;2.40;;;12.30;99.90;;;;;;4990431;28;20660;-78
2022/05/28 05:06:42;;;;;;;5.03;2.60;;;12.30;99.90;;;;;;4991372;28;20202;-79
2022/05/28 05:09:09;;;;;;;8.80;2.77;;;12.30;99.90;;;;;;4989256;28;20263;-78
2022/05/28 05:11:36;;;;;;;7.73;3.10;;;12.40;99.90;;;;;;4996361;28;20306;-80
2022/05/28 05:14:03;;;;;;;6.50;2.97;;;12.50;99.90;;;;;;4993227;28;20231;-79
2022/05/28 05:16:30;;;;;;;5.53;2.43;;;12.60;99.90;;;;;;4993556;28;20216;-79
2022/05/28 05:18:56;;;;;;;3.10;2.20;;;12.70;99.90;;;;;;4991310;28;20205;-80
2022/05/28 05:21:23;;;;;;;6.73;3.10;;;12.80;99.90;;;;;;4992523;28;20212;-79
2022/05/28 05:23:51;;;;;;;6.80;2.90;;;13.00;99.90;;;;;;4992424;28;20209;-79
2022/05/28 05:26:20;;;;;;;9.47;3.57;;;13.10;99.90;;;;;;4991197;28;20208;-79
2022/05/28 05:28:47;;;;;;;6.47;2.50;;;13.20;99.90;;;;;;4992249;28;20218;-79
2022/05/28 05:31:15;;;;;;;9.07;2.73;;;13.30;99.90;;;;;;4992243;28;20201;-79
2022/05/28 05:33:41;;;;;;;6.13;2.77;;;13.50;99.90;;;;;;4992576;28;20230;-80
2022/05/28 05:36:09;;;;;;;7.57;2.20;;;13.50;99.90;;;;;;4993623;28;20657;-79
2022/05/28 05:38:36;;;;;;;5.77;2.30;;;13.60;99.90;;;;;;4984785;28;20616;-79
2022/05/28 05:41:04;;;;;;;4.33;2.30;;;13.90;99.90;;;;;;4988032;28;20205;-79
2022/05/28 05:43:31;;;;;;;7.40;3.27;;;14.40;99.90;;;;;;4990926;28;20256;-80
2022/05/28 05:46:00;;;;;;;3.97;2.10;;;14.80;99.90;;;;;;4992164;28;20219;-79
2022/05/28 05:48:28;;;;;;;8.07;2.40;;;15.20;99.90;;;;;;4992409;28;20197;-78
2022/05/28 05:50:55;;;;;;;5.57;2.50;;;15.00;99.90;;;;;;4992332;28;20197;-78
2022/05/28 05:53:22;;;;;;;5.37;2.50;;;14.60;99.90;;;;;;4991038;28;20210;-78
2022/05/28 05:55:49;;;;;;;6.07;2.20;;;14.50;99.90;;;;;;4992951;28;20292;-79
2022/05/28 05:58:17;;;;;;;6.20;2.63;;;14.70;99.90;;;;;;4992162;28;20202;-79
2022/05/28 06:00:44;;;;;;;3.87;2.20;;;14.80;99.90;;;;;;4990868;28;20726;-79
2022/05/28 06:03:17;;;;;;;5.67;2.40;;;14.90;99.90;;;;;;4987257;28;20629;-78
2022/05/28 06:05:44;;;;;;;7.13;2.50;;;15.20;99.90;;;;;;4990598;28;20253;-79
2022/05/28 06:08:11;;;;;;;7.00;2.77;;;15.70;99.90;;;;;;4991026;28;20200;-80
2022/05/28 06:10:38;;;;;;;11.30;2.50;;;16.20;99.90;;;;;;4984753;28;20248;-81
2022/05/28 06:13:05;;;;;;;7.93;2.60;;;16.70;99.90;;;;;;4992836;28;20210;-81
2022/05/28 06:15:33;;;;;;;7.77;5.73;;;16.70;99.90;;;;;;4991714;28;20292;-78
2022/05/28 06:17:59;;;;;;;6.03;4.93;;;16.70;99.90;;;;;;4990697;28;20276;-80
2022/05/28 06:20:26;;;;;;;6.93;5.07;;;16.60;99.90;;;;;;4990798;28;20252;-81
2022/05/28 06:22:53;;;;;;;8.10;4.60;;;16.40;99.90;;;;;;4990672;28;20260;-81
2022/05/28 06:25:20;;;;;;;6.13;4.90;;;15.80;99.90;;;;;;4988867;28;20217;-79
2022/05/28 06:27:47;;;;;;;7.40;5.33;;;15.30;99.90;;;;;;4993418;28;20212;-82
2022/05/28 06:30:14;;;;;;;6.77;5.77;;;14.90;99.90;;;;;;4991888;28;20209;-80
2022/05/28 06:32:42;;;;;;;7.23;4.10;;;14.70;99.90;;;;;;4998283;28;20274;-81
2022/05/28 06:35:10;;;;;;;9.20;5.00;;;14.60;99.90;;;;;;4994375;28;20226;-80
2022/05/28 06:37:37;;;;;;;6.33;3.17;;;14.90;99.90;;;;;;4982751;28;20222;-81
2022/05/28 06:40:05;;;;;;;6.67;4.97;;;15.20;99.90;;;;;;4992194;28;20198;-80
2022/05/28 06:42:32;;;;;;;4.97;3.30;;;15.60;99.90;;;;;;4996170;28;20210;-80
2022/05/28 06:44:59;;;;;;;8.13;4.20;;;15.60;99.90;;;;;;4995228;28;20286;-80
2022/05/28 06:47:26;;;;;;;5.00;2.70;;;15.60;99.90;;;;;;4995606;28;20208;-81
2022/05/28 06:52:35;;;;;;;5.83;4.90;;;16.90;99.90;;;;;;4992697;28;20284;-81
2022/05/28 06:55:03;;;;;;;7.00;4.23;;;17.30;99.90;;;;;;4994874;28;20229;-80
2022/05/28 06:57:29;;;;;;;5.13;4.63;;;17.70;99.90;;;;;;4994088;28;20248;-81
2022/05/28 06:59:58;;;;;;;4.30;2.43;;;17.90;99.90;;;;;;4988693;28;20206;-79
2022/05/28 07:02:25;;;;;;;3.93;2.47;;;18.20;99.90;;;;;;4992232;28;20193;-82
2022/05/28 07:04:52;;;;;;;6.03;2.40;;;18.50;99.90;;;;;;4991964;28;20809;-80
2022/05/28 07:07:20;;;;;;;6.83;2.47;;;18.60;99.90;;;;;;4993856;28;20210;-81
2022/05/28 07:09:47;;;;;;;6.93;2.53;;;18.90;99.90;;;;;;4993724;28;20203;-82
2022/05/28 07:12:14;;;;;;;7.23;2.40;;;18.90;99.90;;;;;;4995064;28;20203;-81
2022/05/28 07:14:41;;;;;;;8.77;2.83;;;19.40;99.90;;;;;;4992498;28;20278;-81
2022/05/28 07:17:08;;;;;;;6.57;4.53;;;19.20;99.90;;;;;;4986271;28;20207;-81
2022/05/28 07:19:35;;;;;;;5.60;4.40;;;18.90;99.90;;;;;;4981981;28;20743;-82
2022/05/28 07:22:01;;;;;;;8.20;5.33;;;18.90;99.90;;;;;;4989553;28;20191;-82
2022/05/28 07:24:30;;;;;;;10.03;5.20;;;18.10;99.90;;;;;;4999229;28;20231;-81
2022/05/28 07:26:56;;;;;;;7.73;5.03;;;18.50;99.90;;;;;;5003190;28;20245;-82
2022/05/28 07:29:23;;;;;;;6.97;4.60;;;19.10;99.90;;;;;;4990005;28;20251;-81
2022/05/28 07:31:50;;;;;;;7.37;4.93;;;19.60;99.90;;;;;;4990568;28;20243;-82
2022/05/28 07:34:17;;;;;;;9.80;4.27;;;20.10;99.90;;;;;;4992590;28;20232;-83
2022/05/28 07:36:44;;;;;;;6.83;4.77;;;20.30;99.90;;;;;;4994336;28;20213;-80
2022/05/28 07:39:11;;;;;;;6.83;4.00;;;20.50;99.90;;;;;;4993638;28;20296;-82
2022/05/28 07:41:39;;;;;;;7.03;4.13;;;20.00;99.90;;;;;;4991744;28;20248;-84
2022/05/28 07:44:07;;;;;;;5.63;2.70;;;20.30;99.90;;;;;;4994145;28;20247;-79
2022/05/28 07:46:34;;;;;;;7.70;3.60;;;20.50;99.90;;;;;;4987307;28;20601;-79
2022/05/28 07:49:02;;;;;;;6.60;2.47;;;20.30;99.90;;;;;;4992462;28;20264;-78
2022/05/28 07:51:30;;;;;;;6.50;3.00;;;20.20;99.50;;;;;;4994164;28;20759;-77
2022/05/28 07:53:57;;;;;;;4.40;3.63;;;20.00;98.20;;;;;;4999081;28;20714;-80
2022/05/28 07:56:24;;;;;;;4.73;3.97;;;20.20;99.90;;;;;;4985915;28;20229;-79
2022/05/28 07:58:54;;;;;;;6.37;3.93;;;20.30;99.80;;;;;;4987920;28;20320;-79
2022/05/28 08:01:22;;;;;;;5.80;4.23;;;20.10;99.70;;;;;;4993463;28;20644;-79
2022/05/28 08:03:49;;;;;;;4.27;3.70;;;20.40;99.90;;;;;;4992363;28;20272;-79
2022/05/28 08:06:17;;;;;;;5.50;4.07;;;20.70;99.10;;;;;;4991531;28;20205;-79
2022/05/28 08:08:44;;;;;;;5.67;4.40;;;21.00;98.70;;;;;;4992804;28;20682;-77
2022/05/28 08:11:11;;;;;;;5.67;4.60;;;21.00;97.80;;;;;;4993871;28;20272;-79
2022/05/28 08:13:38;;;;;;;6.23;4.63;;;21.00;97.60;;;;;;4992837;28;20228;-79
2022/05/28 08:16:06;;;;;;;6.93;3.20;;;21.30;97.30;;;;;;4992633;28;20296;-82
2022/05/28 08:18:36;;;;;;;5.93;3.63;;;20.70;98.00;;;;;;4993272;28;20686;-80
2022/05/28 08:23:48;;;;;;;5.87;3.67;;;19.60;99.30;;;;;;4988030;28;20217;-82
2022/05/28 08:26:19;;;;;;;7.70;3.70;;;19.60;98.30;;;;;;4994216;28;20281;-80
2022/05/28 08:28:47;;;;;;;4.87;2.90;;;19.60;98.20;;;;;;4991623;28;20549;-82
2022/05/28 08:31:16;;;;;;;4.70;2.33;;;20.10;98.60;;;;;;4992672;28;20208;-82
2022/05/28 08:33:43;;;;;;;5.90;2.43;;;20.30;98.90;;;;;;4989997;28;20291;-79
2022/05/28 08:36:10;;;;;;;3.63;1.90;;;20.30;96.90;;;;;;4990748;28;20303;-80
2022/05/28 08:38:39;;;;;;;4.33;2.13;;;20.50;98.10;;;;;;4988737;28;20725;-80
2022/05/28 08:41:12;;;;;;;4.73;2.47;;;20.50;96.10;;;;;;4992237;28;20284;-79
2022/05/28 08:43:42;;;;;;;3.53;2.40;;;20.40;98.20;;;;;;4990732;28;20236;-78
2022/05/28 08:46:13;;;;;;;7.67;2.37;;;20.70;97.90;;;;;;4987660;28;20209;-79
2022/05/28 08:48:45;;;;;;;4.63;4.23;;;20.70;97.50;;;;;;4983789;28;20205;-80
2022/05/28 08:51:18;;;;;;;5.30;4.90;;;20.50;96.00;;;;;;4992375;28;20197;-80
2022/05/28 08:53:49;;;;;;;6.17;4.00;;;20.90;97.90;;;;;;4987613;28;20225;-79
2022/05/28 08:56:22;;;;;;;4.33;3.33;;;21.20;96.20;;;;;;4989708;28;20256;-79
2022/05/28 08:59:01;;;;;;;2.80;2.60;;;21.30;96.10;;;;;;4991395;28;20201;-80
2022/05/28 09:01:31;;;;;;;3.90;2.70;;;21.50;94.60;;;;;;4991057;28;20649;-79
2022/05/28 09:04:04;;;;;;;5.00;4.40;;;21.50;92.90;;;;;;4997084;28;20232;-79
2022/05/28 09:06:37;;;;;;;5.73;4.83;;;21.20;94.20;;;;;;4991937;28;20200;-78
2022/05/28 09:09:05;;;;;;;3.83;1.60;;;21.40;94.60;;;;;;4992761;28;20457;-79
2022/05/28 09:11:36;;;;;;;3.97;2.17;;;21.40;94.30;;;;;;4992051;28;20205;-79
2022/05/28 09:14:22;;;;;;;4.10;2.00;;;21.50;92.80;;;;;;4990898;28;20296;-80
2022/05/28 09:16:52;;;;;;;2.53;2.27;;;21.60;93.80;;;;;;4992246;28;20217;-80
2022/05/28 09:19:22;;;;;;;5.17;4.17;;;21.80;93.50;;;;;;4991080;28;20392;-79
2022/05/28 09:21:49;;;;;;;3.80;3.40;;;22.00;94.60;;;;;;4990956;28;20418;-80
2022/05/28 09:24:20;;;;;;;5.13;4.17;;;21.70;92.60;;;;;;4991070;28;20225;-79
2022/05/28 09:27:04;;;;;;;4.50;4.07;;;21.60;92.60;;;;;;4983782;28;20212;-79
2022/05/28 09:29:49;;;;;;;6.23;4.77;;;21.40;94.00;;;;;;4990571;28;20768;-80
2022/05/28 09:32:25;;;;;;;4.80;4.40;;;21.80;92.80;;;;;;4991956;28;20201;-78
2022/05/28 09:35:09;;;;;;;7.00;4.50;;;22.00;92.20;;;;;;4991808;28;20775;-79
2022/05/28 09:37:52;;;;;;;4.67;4.33;;;21.90;91.60;;;;;;4990706;28;20224;-78
2022/05/28 09:40:21;;;;;;;3.53;1.60;;;21.70;92.00;;;;;;4989663;28;20210;-80
2022/05/28 09:43:06;;;;;;;5.80;4.70;;;21.20;92.80;;;;;;4990353;28;20209;-79
2022/05/28 09:45:44;;;;;;;4.03;2.67;;;20.40;91.60;;;;;;4992008;28;20247;-79
2022/05/28 09:48:19;;;;;;;3.83;3.53;;;19.70;92.60;;;;;;4991359;28;20209;-79
2022/05/28 09:50:47;;;;;;;2.93;2.73;;;20.00;92.80;;;;;;4991887;28;20200;-79
2022/05/28 09:56:12;;;;;;;5.57;4.47;;;20.30;94.20;;;;;;4989181;28;20221;-79
2022/05/28 09:58:41;;;;;;;3.17;1.80;;;20.20;93.80;;;;;;4991011;28;20244;-79
2022/05/28 10:01:11;;;;;;;6.20;4.60;;;20.30;93.20;;;;;;4997636;28;20686;-80
2022/05/28 10:06:27;;;;;;;4.00;1.80;;;20.70;94.30;;;;;;4991448;28;20252;-78
2022/05/28 10:08:54;;;;;;;3.87;1.50;;;21.20;93.20;;;;;;4995657;28;20209;-80
2022/05/28 10:11:22;;;;;;;2.63;1.53;;;21.60;92.50;;;;;;4994463;28;20205;-81
2022/05/28 10:13:51;;;;;;;4.80;3.40;;;21.80;91.70;;;;;;4996670;28;20632;-79
2022/05/28 10:16:20;;;;;;;4.50;4.10;;;21.80;91.50;;;;;;4995770;28;20221;-81
2022/05/28 10:18:54;;;;;;;5.17;3.53;;;21.60;90.90;;;;;;4980184;28;20671;-79
2022/05/28 10:21:29;;;;;;;4.80;4.40;;;21.10;89.80;;;;;;4993324;28;20255;-79
2022/05/28 10:24:00;;;;;;;4.40;4.00;;;21.00;92.40;;;;;;4996090;28;20213;-79
2022/05/28 10:26:30;;;;;;;3.90;3.60;;;20.80;90.20;;;;;;4995312;28;20256;-79
2022/05/28 10:29:00;;;;;;;3.60;1.87;;;20.60;92.20;;;;;;4992164;28;20253;-78
2022/05/28 10:31:31;;;;;;;3.33;3.03;;;20.50;91.60;;;;;;4992635;28;20201;-79
2022/05/28 10:33:58;;;;;;;3.23;3.03;;;19.80;90.50;;;;;;4994187;28;20225;-79
2022/05/28 10:36:28;;;;;;;3.07;1.97;;;19.90;93.60;;;;;;4993957;28;20221;-80
2022/05/28 10:39:10;;;;;;;2.13;1.47;;;20.10;92.60;;;;;;4994835;28;20674;-80
2022/05/28 10:41:38;;;;;;;4.07;1.53;;;20.30;91.50;;;;;;4999811;28;20678;-79
2022/05/28 10:44:06;;;;;;;5.97;1.80;;;20.20;92.00;;;;;;4994089;28;20228;-79
2022/05/28 10:46:44;;;;;;;2.87;1.57;;;20.30;91.70;;;;;;4995063;28;20205;-79
2022/05/28 10:49:25;;;;;;;3.07;1.53;;;20.50;92.80;;;;;;4995035;28;20197;-80
2022/05/28 10:52:00;;;;;;;4.00;1.70;;;20.60;90.90;;;;;;4987146;28;20201;-79
2022/05/28 10:54:47;;;;;;;2.27;1.60;;;20.30;91.80;;;;;;4993610;28;20228;-79
2022/05/28 10:57:52;;;;;;;3.03;1.50;;;20.00;91.10;;;;;;4992016;28;20346;-79
2022/05/28 11:00:22;;;;;;;4.53;2.10;;;19.90;92.40;;;;;;4936962;28;20215;-79
2022/05/28 11:03:30;;;;;;;5.93;2.90;;;19.90;92.70;;;;;;4985008;28;20375;-80
2022/05/28 11:06:33;;;;;;;4.93;4.43;;;19.90;92.90;;;;;;4989251;28;20209;-79
2022/05/28 11:09:09;;;;;;;3.20;1.87;;;19.70;92.70;;;;;;4990139;28;20204;-78
2022/05/28 11:11:52;;;;;;;2.50;1.60;;;20.00;92.80;;;;;;4992602;28;20204;-79
2022/05/28 11:14:42;;;;;;;2.20;2.07;;;20.30;90.10;;;;;;4993208;28;20225;-79
2022/05/28 11:17:21;;;;;;;2.87;1.97;;;20.20;90.90;;;;;;4989313;28;20236;-80
2022/05/28 11:20:01;;;;;;;3.27;2.03;;;20.40;91.60;;;;;;4990996;28;20193;-83
2022/05/28 11:22:41;;;;;;;2.03;1.70;;;20.20;91.00;;;;;;4995351;28;20237;-82
2022/05/28 11:25:16;;;;;;;3.77;2.10;;;20.30;93.00;;;;;;4996197;28;20275;-82
2022/05/28 11:28:04;;;;;;;4.37;2.10;;;19.70;92.40;;;;;;4992335;28;20200;-82
2022/05/28 11:30:38;;;;;;;4.63;4.13;;;19.60;93.60;;;;;;4991316;28;20208;-80
2022/05/28 11:33:12;;;;;;;4.40;4.00;;;19.60;93.20;;;;;;4994162;28;20614;-82
2022/05/28 11:35:42;;;;;;;3.77;3.30;;;20.00;94.10;;;;;;4992678;28;20209;-82
2022/05/28 11:38:18;;;;;;;5.43;3.10;;;20.00;93.40;;;;;;4994000;28;20582;-82
2022/05/28 11:40:54;;;;;;;3.50;3.10;;;20.10;93.50;;;;;;4983869;28;20685;-81
2022/05/28 11:43:28;;;;;;;4.47;2.93;;;20.10;94.00;;;;;;4986813;28;20251;-82
2022/05/28 11:46:01;;;;;;;4.23;3.10;;;20.10;93.30;;;;;;4994001;28;20729;-83
2022/05/28 11:51:29;;;;;;;13.77;5.60;;;19.80;92.70;;;;;;4991089;28;20210;-79
2022/05/28 11:54:01;;;;;;;9.23;3.63;;;19.80;93.20;;;;;;4987738;28;20724;-80
2022/05/28 11:56:29;;;;;;;3.60;2.60;;;20.00;93.80;;;;;;4992465;28;20267;-79
2022/05/28 11:59:01;;;;;;;5.67;3.60;;;20.10;92.90;;;;;;4984675;28;20255;-80
2022/05/28 12:01:30;;;;;;;6.77;2.60;;;20.00;92.80;;;;;;4991423;28;20260;-80
2022/05/28 12:03:58;;;;;;;5.07;2.47;;;20.30;93.10;;;;;;4987618;28;20225;-79
2022/05/28 12:06:29;;;;;;;3.60;2.80;;;20.20;92.10;;;;;;4992844;28;20211;-79
2022/05/28 12:09:01;;;;;;;6.10;2.40;;;20.10;91.10;;;;;;4988745;28;20202;-77
2022/05/28 12:11:42;;;;;;;5.33;3.30;;;20.00;92.60;;;;;;4991806;28;20248;-82
2022/05/28 12:14:23;;;;;;;4.83;4.00;;;19.80;93.20;;;;;;4990774;28;20241;-78
2022/05/28 12:17:02;;;;;;;4.63;2.77;;;19.70;94.00;;;;;;4988869;28;20221;-77
2022/05/28 12:19:30;;;;;;;6.90;5.83;;;19.40;94.30;;;;;;4984277;28;20639;-79
2022/05/28 12:22:08;;;;;;;6.10;2.10;;;19.40;94.60;;;;;;4987772;28;20725;-80
2022/05/28 12:24:37;;;;;;;4.03;2.00;;;19.30;93.80;;;;;;4991264;28;20307;-79
2022/05/28 12:27:14;;;;;;;3.13;1.87;;;19.20;95.30;;;;;;4994286;28;20211;-80
2022/05/28 12:29:58;;;;;;;2.80;1.80;;;19.20;94.30;;;;;;4992897;28;20207;-79
2022/05/28 12:32:27;;;;;;;6.70;3.50;;;19.40;95.00;;;;;;4988859;28;20238;-81
2022/05/28 12:34:56;;;;;;;3.23;1.73;;;19.40;93.90;;;;;;4999427;28;20217;-82
2022/05/28 12:37:27;;;;;;;2.10;1.47;;;19.30;94.10;;;;;;5001609;28;20633;-81
2022/05/28 12:40:05;;;;;;;3.33;2.00;;;19.50;94.00;;;;;;4995428;28;20204;-78
2022/05/28 12:42:33;;;;;;;3.37;1.63;;;19.50;92.70;;;;;;4992925;28;20662;-79
2022/05/28 12:45:16;;;;;;;2.70;1.77;;;19.50;93.10;;;;;;4991058;28;20227;-80
2022/05/28 12:47:43;;;;;;;3.37;1.93;;;19.50;93.00;;;;;;4992836;28;20200;-79
2022/05/28 12:50:19;;;;;;;6.20;5.60;;;19.20;92.30;;;;;;4985302;28;20259;-79
2022/05/28 12:52:54;;;;;;;2.13;1.47;;;19.10;92.20;;;;;;4976898;28;20200;-79
2022/05/28 12:55:35;;;;;;;1.70;1.60;;;19.10;93.50;;;;;;4989527;28;20282;-80
2022/05/28 12:58:07;;;;;;;2.00;1.80;;;19.10;92.80;;;;;;4995633;28;20211;-79
2022/05/28 13:00:44;;;;;;;4.73;4.23;;;19.20;91.80;;;;;;4992529;28;20200;-80
2022/05/28 13:03:17;;;;;;;2.03;1.60;;;19.30;93.20;;;;;;4984542;28;20208;-80
2022/05/28 13:05:48;;;;;;;2.73;1.43;;;19.60;93.30;;;;;;4991325;28;20207;-80
2022/05/28 13:08:20;;;;;;;2.73;1.80;;;19.80;92.40;;;;;;4992317;28;20741;-81
2022/05/28 13:10:52;;;;;;;2.30;1.60;;;19.80;92.90;;;;;;4990802;28;20262;-80
2022/05/28 13:13:51;;;;;;;2.93;1.60;;;19.90;92.30;;;;;;4992313;28;20588;-78
2022/05/28 13:16:41;;;;;;;2.97;1.80;;;20.00;91.70;;;;;;4992149;28;20207;-80